createdAt,value
2024-05-09T00:00:30.538Z,11.05
2024-05-09T00:03:02.636Z,11.03
2024-05-09T00:05:29.329Z,10.98
2024-05-09T00:07:55.838Z,10.99
2024-05-09T00:10:29.135Z,10.93
2024-05-09T00:13:03.266Z,10.87
2024-05-09T00:15:29.715Z,10.86
2024-05-09T00:17:56.716Z,10.83
2024-05-09T00:20:28.585Z,10.81
2024-05-09T00:23:02.869Z,10.79
2024-05-09T00:25:29.353Z,10.77
2024-05-09T00:27:56.188Z,10.74
2024-05-09T00:30:31.604Z,10.68
2024-05-09T00:33:01.901Z,10.63
2024-05-09T00:35:28.809Z,10.59
2024-05-09T00:37:55.568Z,10.54
2024-05-09T00:40:30.882Z,10.47
2024-05-09T00:43:08.431Z,10.37
2024-05-09T00:45:35.181Z,10.32
2024-05-09T00:48:04.024Z,10.25
2024-05-09T00:50:36.324Z,10.17
2024-05-09T00:53:05.939Z,10.09
2024-05-09T00:55:33.746Z,10.03
2024-05-09T00:58:00.841Z,9.94
2024-05-09T01:00:35.648Z,9.89
2024-05-09T01:03:06.218Z,9.82
2024-05-09T01:05:33.070Z,9.75
2024-05-09T01:07:59.788Z,9.69
2024-05-09T01:10:33.599Z,9.66
2024-05-09T01:13:02.560Z,9.63
2024-05-09T01:15:29.092Z,9.60
2024-05-09T01:17:56.911Z,9.54
2024-05-09T01:20:32.204Z,9.49
2024-05-09T01:23:07.486Z,9.42
2024-05-09T01:25:34.188Z,9.38
2024-05-09T01:28:00.851Z,9.32
2024-05-09T01:30:34.082Z,9.27
2024-05-09T01:33:03.567Z,9.21
2024-05-09T01:38:58.634Z,9.05
2024-05-09T01:41:25.217Z,8.99
2024-05-09T01:43:51.812Z,8.93
2024-05-09T01:46:18.327Z,8.88
2024-05-09T01:48:45.745Z,8.82
2024-05-09T01:51:12.587Z,8.78
2024-05-09T01:53:39.253Z,8.72
2024-05-09T01:56:06.357Z,8.69
2024-05-09T01:58:32.893Z,8.69
2024-05-09T02:00:59.403Z,8.67
2024-05-09T02:03:25.981Z,8.65
2024-05-09T02:05:52.597Z,8.57
2024-05-09T02:08:21.750Z,8.52
2024-05-09T02:10:49.967Z,8.48
2024-05-09T02:13:17.180Z,8.44
2024-05-09T02:15:44.047Z,8.40
2024-05-09T02:18:11.229Z,8.38
2024-05-09T02:20:39.298Z,8.35
2024-05-09T02:23:06.766Z,8.29
2024-05-09T02:25:33.701Z,8.25
2024-05-09T02:28:00.298Z,8.21
2024-05-09T02:30:36.565Z,8.19
2024-05-09T02:33:07.659Z,8.16
2024-05-09T02:35:34.571Z,8.14
2024-05-09T02:38:01.600Z,8.10
2024-05-09T02:40:36.277Z,8.07
2024-05-09T02:43:05.762Z,8.04
2024-05-09T02:45:32.755Z,8.00
2024-05-09T02:47:59.550Z,7.98
2024-05-09T02:50:33.951Z,7.95
2024-05-09T02:53:05.187Z,7.91
2024-05-09T02:55:31.817Z,7.87
2024-05-09T02:57:58.286Z,7.84
2024-05-09T03:00:34.197Z,7.82
2024-05-09T03:03:06.394Z,7.81
2024-05-09T03:05:33.381Z,7.80
2024-05-09T03:08:00.027Z,7.77
2024-05-09T03:10:29.030Z,7.73
2024-05-09T03:13:05.668Z,7.69
2024-05-09T03:15:32.127Z,7.66
2024-05-09T03:17:58.815Z,7.61
2024-05-09T03:20:32.512Z,7.58
2024-05-09T03:23:01.517Z,7.55
2024-05-09T03:25:28.047Z,7.53
2024-05-09T03:27:54.541Z,7.52
2024-05-09T03:30:29.633Z,7.50
2024-05-09T03:33:03.223Z,7.46
2024-05-09T03:35:29.857Z,7.44
2024-05-09T03:37:56.432Z,7.41
2024-05-09T03:40:26.566Z,7.36
2024-05-09T03:42:55.633Z,7.34
2024-05-09T03:45:22.133Z,7.34
2024-05-09T03:47:48.811Z,7.33
2024-05-09T03:50:22.513Z,7.32
2024-05-09T03:52:55.918Z,7.29
2024-05-09T03:55:22.459Z,7.29
2024-05-09T03:57:48.904Z,7.29
2024-05-09T04:00:22.086Z,7.31
2024-05-09T04:02:53.232Z,7.30
2024-05-09T04:05:19.947Z,7.30
2024-05-09T04:07:46.528Z,7.32
2024-05-09T04:10:21.120Z,7.32
2024-05-09T04:12:54.372Z,7.36
2024-05-09T04:15:21.170Z,7.37
2024-05-09T04:17:47.857Z,7.40
2024-05-09T04:20:24.214Z,7.45
2024-05-09T04:22:59.750Z,7.49
2024-05-09T04:25:26.217Z,7.56
2024-05-09T04:27:52.721Z,7.67
2024-05-09T04:30:26.274Z,7.81
2024-05-09T04:33:02.737Z,7.86
2024-05-09T04:35:29.385Z,7.91
2024-05-09T04:37:56.025Z,7.93
2024-05-09T04:40:28.615Z,7.96
2024-05-09T04:43:00.185Z,7.99
2024-05-09T04:45:27.138Z,8.02
2024-05-09T04:47:54.164Z,8.06
2024-05-09T04:50:29.389Z,8.10
2024-05-09T04:53:02.225Z,8.12
2024-05-09T04:55:28.795Z,8.16
2024-05-09T04:57:55.220Z,8.18
2024-05-09T05:00:28.864Z,8.20
2024-05-09T05:03:02.000Z,8.24
2024-05-09T05:05:28.680Z,8.23
2024-05-09T05:07:55.151Z,8.25
2024-05-09T05:10:29.429Z,8.30
2024-05-09T05:13:03.449Z,8.29
2024-05-09T05:15:29.982Z,8.28
2024-05-09T05:17:56.572Z,8.33
2024-05-09T05:20:30.698Z,8.40
2024-05-09T05:22:59.903Z,8.44
2024-05-09T05:25:26.451Z,8.51
2024-05-09T05:27:52.923Z,8.59
2024-05-09T05:30:25.009Z,8.62
2024-05-09T05:32:55.640Z,8.70
2024-05-09T05:35:22.438Z,8.82
2024-05-09T05:37:49.077Z,8.85
2024-05-09T05:40:25.260Z,8.88
2024-05-09T05:42:59.432Z,8.98
2024-05-09T05:45:25.913Z,9.05
2024-05-09T05:47:54.653Z,9.09
2024-05-09T05:50:27.878Z,9.18
2024-05-09T05:53:01.732Z,9.33
2024-05-09T05:55:28.246Z,9.45
2024-05-09T05:57:54.702Z,9.54
2024-05-09T06:00:29.106Z,9.68
2024-05-09T06:03:01.818Z,9.77
2024-05-09T06:05:28.521Z,9.80
2024-05-09T06:07:55.035Z,9.92
2024-05-09T06:10:25.942Z,10.05
2024-05-09T06:12:56.971Z,10.20
2024-05-09T06:15:23.528Z,10.33
2024-05-09T06:17:50.147Z,10.36
2024-05-09T06:20:23.482Z,10.48
2024-05-09T06:22:54.070Z,10.55
2024-05-09T06:25:20.624Z,10.67
2024-05-09T06:27:47.094Z,10.72
2024-05-09T06:30:24.902Z,10.73
2024-05-09T06:32:56.223Z,10.74
2024-05-09T06:35:22.857Z,10.75
2024-05-09T06:37:49.422Z,10.73
2024-05-09T06:40:21.375Z,10.88
2024-05-09T06:42:52.014Z,11.00
2024-05-09T06:45:18.443Z,11.13
2024-05-09T06:47:45.140Z,11.29
2024-05-09T06:50:20.200Z,11.37
2024-05-09T06:52:50.583Z,11.60
2024-05-09T06:55:17.103Z,11.74
2024-05-09T06:57:43.534Z,11.71
2024-05-09T07:00:15.442Z,11.77
2024-05-09T07:02:45.201Z,11.88
2024-05-09T07:05:11.796Z,12.01
2024-05-09T07:07:38.300Z,12.12
2024-05-09T07:10:07.688Z,12.20
2024-05-09T07:12:34.583Z,12.19
2024-05-09T07:15:01.192Z,12.25
2024-05-09T07:17:27.836Z,12.15
2024-05-09T07:19:54.460Z,12.21
2024-05-09T07:22:20.972Z,12.31
2024-05-09T07:24:47.470Z,12.45
2024-05-09T07:27:14.035Z,12.60
2024-05-09T07:29:40.679Z,12.74
2024-05-09T07:32:07.410Z,12.79
2024-05-09T07:34:34.182Z,12.84
2024-05-09T07:37:00.753Z,12.99
2024-05-09T07:39:27.912Z,13.11
2024-05-09T07:41:55.509Z,13.18
2024-05-09T07:44:22.009Z,13.28
2024-05-09T07:47:48.754Z,13.44
2024-05-09T07:54:34.137Z,13.78
2024-05-09T07:57:00.872Z,13.85
2024-05-09T07:59:27.500Z,13.93
2024-05-09T08:01:54.054Z,14.03
2024-05-09T08:04:22.405Z,14.20
2024-05-09T08:06:49.487Z,14.28
2024-05-09T08:09:20.593Z,14.39
2024-05-09T08:11:48.128Z,14.46
2024-05-09T08:14:14.555Z,14.58
2024-05-09T08:16:41.055Z,14.66
2024-05-09T08:19:07.677Z,14.79
2024-05-09T08:21:34.205Z,14.87
2024-05-09T08:24:00.685Z,14.97
2024-05-09T08:26:27.171Z,15.13
2024-05-09T08:28:53.652Z,15.20
2024-05-09T08:31:20.263Z,15.36
2024-05-09T08:33:47.769Z,15.44
2024-05-09T08:36:14.921Z,15.47
2024-05-09T08:38:41.364Z,15.59
2024-05-09T08:41:08.002Z,15.59
2024-05-09T08:43:38.251Z,15.70
2024-05-09T08:46:06.621Z,15.86
2024-05-09T08:48:36.810Z,15.90
2024-05-09T08:51:03.788Z,16.10
2024-05-09T08:53:30.306Z,16.14
2024-05-09T08:56:01.513Z,16.23
2024-05-09T08:58:30.514Z,16.31
2024-05-09T09:00:57.659Z,16.36
2024-05-09T09:03:27.857Z,16.53
2024-05-09T09:06:05.379Z,16.76
2024-05-09T09:08:32.000Z,16.88
2024-05-09T09:10:59.279Z,16.95
2024-05-09T09:13:26.391Z,17.06
2024-05-09T09:15:52.958Z,17.27
2024-05-09T09:18:19.615Z,17.53
2024-05-09T09:20:46.244Z,17.60
2024-05-09T09:23:12.777Z,17.75
2024-05-09T09:25:40.214Z,17.78
2024-05-09T09:28:07.207Z,17.86
2024-05-09T09:30:37.411Z,18.03
2024-05-09T09:33:06.319Z,18.15
2024-05-09T09:35:33.688Z,18.37
2024-05-09T09:38:02.803Z,18.58
2024-05-09T09:40:36.224Z,18.70
2024-05-09T09:43:13.876Z,18.53
2024-05-09T09:45:43.439Z,18.53
2024-05-09T09:48:10.747Z,18.70
2024-05-09T09:50:37.830Z,18.93
2024-05-09T09:53:06.952Z,18.94
2024-05-09T09:55:33.512Z,18.52
2024-05-09T09:58:00.827Z,18.52
2024-05-09T10:00:32.742Z,18.50
2024-05-09T10:03:00.855Z,18.63
2024-05-09T10:05:28.318Z,18.60
2024-05-09T10:07:56.414Z,18.53
2024-05-09T10:10:30.395Z,18.56
2024-05-09T10:13:06.704Z,18.65
2024-05-09T10:15:46.962Z,18.87
2024-05-09T10:18:14.585Z,18.97
2024-05-09T10:20:45.791Z,19.05
2024-05-09T10:23:24.678Z,19.06
2024-05-09T10:26:04.181Z,19.15
2024-05-09T10:28:32.280Z,19.21
2024-05-09T10:31:03.555Z,19.20
2024-05-09T10:33:50.256Z,19.17
2024-05-09T10:36:25.341Z,18.99
2024-05-09T10:38:54.079Z,19.07
2024-05-09T10:41:21.706Z,18.95
2024-05-09T10:43:48.687Z,19.06
2024-05-09T10:46:15.538Z,19.11
2024-05-09T10:48:43.751Z,19.26
2024-05-09T10:51:10.660Z,19.24
2024-05-09T10:53:41.658Z,19.15
2024-05-09T10:56:08.528Z,19.06
2024-05-09T10:58:35.041Z,19.15
2024-05-09T11:01:05.467Z,19.19
2024-05-09T11:03:33.439Z,19.17
2024-05-09T11:06:00.108Z,19.32
2024-05-09T11:08:26.917Z,19.32
2024-05-09T11:10:54.962Z,19.25
2024-05-09T11:13:32.623Z,19.29
2024-05-09T11:16:00.020Z,19.28
2024-05-09T11:18:30.798Z,19.28
2024-05-09T11:21:00.396Z,19.45
2024-05-09T11:23:27.813Z,19.53
2024-05-09T11:25:55.870Z,19.67
2024-05-09T11:28:23.208Z,19.87
2024-05-09T11:30:50.916Z,20.05
2024-05-09T11:33:19.014Z,19.81
2024-05-09T11:35:46.855Z,19.91
2024-05-09T11:38:13.759Z,20.04
2024-05-09T11:40:40.488Z,20.06
2024-05-09T11:43:07.097Z,20.11
2024-05-09T11:45:33.632Z,19.99
2024-05-09T11:48:00.285Z,19.99
2024-05-09T11:50:30.339Z,19.93
2024-05-09T11:53:01.530Z,19.89
2024-05-09T11:55:28.611Z,19.83
2024-05-09T11:57:55.366Z,19.70
2024-05-09T12:00:29.572Z,19.80
2024-05-09T12:03:03.528Z,19.96
2024-05-09T12:05:29.998Z,20.07
2024-05-09T12:07:56.730Z,19.97
2024-05-09T12:10:32.074Z,20.09
2024-05-09T12:13:01.008Z,20.13
2024-05-09T12:15:27.618Z,20.21
2024-05-09T12:17:54.997Z,20.12
2024-05-09T12:20:28.856Z,20.20
2024-05-09T12:23:02.346Z,20.12
2024-05-09T12:25:28.859Z,20.15
2024-05-09T12:27:55.447Z,20.26
2024-05-09T12:30:32.615Z,20.33
2024-05-09T12:33:04.288Z,20.07
2024-05-09T12:35:31.045Z,20.01
2024-05-09T12:37:57.604Z,19.98
2024-05-09T12:40:34.055Z,19.89
2024-05-09T12:43:04.027Z,19.89
2024-05-09T12:45:30.616Z,19.84
2024-05-09T12:47:57.319Z,19.95
2024-05-09T12:50:31.035Z,19.88
2024-05-09T12:52:59.487Z,19.96
2024-05-09T12:55:25.998Z,20.01
2024-05-09T12:57:52.855Z,20.18
2024-05-09T13:00:24.143Z,20.30
2024-05-09T13:02:57.853Z,20.31
2024-05-09T13:05:24.609Z,20.25
2024-05-09T13:07:51.286Z,20.12
2024-05-09T13:10:25.804Z,20.16
2024-05-09T13:12:58.429Z,20.23
2024-05-09T13:15:24.902Z,20.30
2024-05-09T13:17:51.407Z,20.28
2024-05-09T13:20:26.107Z,20.43
2024-05-09T13:23:00.986Z,20.51
2024-05-09T13:25:27.508Z,20.62
2024-05-09T13:27:54.190Z,20.63
2024-05-09T13:30:29.290Z,20.76
2024-05-09T13:33:04.653Z,20.90
2024-05-09T13:35:31.384Z,21.05
2024-05-09T13:37:58.031Z,21.18
2024-05-09T13:40:32.189Z,21.27
2024-05-09T13:43:01.423Z,21.33
2024-05-09T13:45:27.888Z,21.34
2024-05-09T13:47:54.572Z,21.45
2024-05-09T13:50:30.552Z,21.18
2024-05-09T13:53:00.709Z,21.39
2024-05-09T13:55:27.193Z,21.51
2024-05-09T13:57:53.870Z,21.45
2024-05-09T14:02:50.006Z,21.44
2024-05-09T14:05:16.861Z,21.21
2024-05-09T14:07:43.916Z,21.30
2024-05-09T14:10:19.759Z,21.32
2024-05-09T14:12:52.132Z,21.35
2024-05-09T14:15:18.603Z,21.24
2024-05-09T14:17:45.262Z,21.34
2024-05-09T14:20:14.200Z,21.45
2024-05-09T14:22:43.178Z,21.44
2024-05-09T14:25:09.961Z,21.54
2024-05-09T14:27:37.004Z,21.58
2024-05-09T14:30:05.659Z,21.41
2024-05-09T14:32:32.351Z,21.26
2024-05-09T14:34:58.918Z,21.31
2024-05-09T14:37:25.500Z,21.19
2024-05-09T14:39:52.126Z,21.15
2024-05-09T14:42:18.634Z,21.24
2024-05-09T14:44:45.085Z,21.18
2024-05-09T14:47:11.603Z,21.25
2024-05-09T14:49:38.253Z,21.22
2024-05-09T14:52:05.103Z,21.28
2024-05-09T14:54:31.579Z,21.45
2024-05-09T14:56:58.083Z,21.48
2024-05-09T14:59:24.586Z,21.57
2024-05-09T15:01:51.196Z,21.59
2024-05-09T15:04:17.950Z,21.35
2024-05-09T15:06:44.722Z,21.01
2024-05-09T15:09:11.237Z,21.15
2024-05-09T15:11:37.869Z,21.25
2024-05-09T15:14:04.357Z,21.37
2024-05-09T15:16:30.932Z,21.51
2024-05-09T15:18:57.905Z,21.44
2024-05-09T15:21:24.445Z,21.36
2024-05-09T15:23:50.877Z,21.43
2024-05-09T15:26:17.586Z,21.07
2024-05-09T15:28:44.123Z,21.06
2024-05-09T15:31:10.602Z,21.04
2024-05-09T15:33:37.199Z,21.06
2024-05-09T15:36:03.934Z,21.08
2024-05-09T15:38:30.477Z,21.13
2024-05-09T15:40:57.026Z,21.08
2024-05-09T15:43:23.562Z,21.19
2024-05-09T15:45:50.173Z,21.42
2024-05-09T15:48:16.838Z,21.73
2024-05-09T15:50:43.684Z,22.09
2024-05-09T15:53:11.976Z,22.27
2024-05-09T15:55:39.441Z,22.57
2024-05-09T15:58:07.037Z,22.83
2024-05-09T16:00:38.748Z,22.82
2024-05-09T16:03:13.702Z,23.04
2024-05-09T16:05:42.952Z,23.48
2024-05-09T16:08:09.749Z,23.75
2024-05-09T16:10:38.139Z,24.01
2024-05-09T16:13:05.827Z,24.10
2024-05-09T16:15:32.557Z,24.30
2024-05-09T16:18:00.322Z,24.66
2024-05-09T16:20:35.025Z,25.03
2024-05-09T16:23:06.846Z,25.37
2024-05-09T16:25:33.460Z,25.79
2024-05-09T16:28:00.157Z,26.17
2024-05-09T16:30:33.904Z,26.39
2024-05-09T16:33:04.019Z,26.41
2024-05-09T16:35:31.379Z,26.72
2024-05-09T16:37:57.993Z,26.97
2024-05-09T16:40:34.329Z,27.38
2024-05-09T16:43:06.114Z,27.65
2024-05-09T16:45:32.913Z,28.14
2024-05-09T16:48:00.325Z,28.31
2024-05-09T16:50:32.389Z,27.93
2024-05-09T16:53:01.177Z,27.82
2024-05-09T16:55:27.891Z,28.37
2024-05-09T16:57:55.537Z,28.82
2024-05-09T17:00:31.490Z,29.02
2024-05-09T17:03:06.607Z,29.29
2024-05-09T17:05:33.883Z,29.74
2024-05-09T17:08:00.681Z,29.74
2024-05-09T17:10:32.552Z,29.96
2024-05-09T17:13:01.304Z,29.51
2024-05-09T17:15:27.835Z,29.40
2024-05-09T17:17:54.902Z,28.50
2024-05-09T17:20:29.454Z,28.28
2024-05-09T17:23:00.456Z,28.42
2024-05-09T17:25:26.932Z,28.09
2024-05-09T17:27:54.152Z,28.21
2024-05-09T17:30:28.805Z,28.32
2024-05-09T17:33:01.243Z,28.37
2024-05-09T17:35:27.884Z,27.84
2024-05-09T17:37:54.380Z,27.60
2024-05-09T17:40:27.748Z,27.32
2024-05-09T17:42:59.616Z,27.14
2024-05-09T17:45:26.097Z,27.02
2024-05-09T17:47:52.940Z,27.20
2024-05-09T17:50:27.331Z,27.39
2024-05-09T17:53:00.243Z,27.28
2024-05-09T17:55:26.793Z,27.03
2024-05-09T17:57:53.407Z,26.73
2024-05-09T18:00:28.948Z,26.38
2024-05-09T18:03:03.774Z,25.93
2024-05-09T18:05:30.572Z,25.58
2024-05-09T18:07:57.305Z,25.23
2024-05-09T18:10:29.986Z,25.03
2024-05-09T18:13:02.341Z,24.96
2024-05-09T18:15:28.990Z,24.91
2024-05-09T18:17:55.611Z,24.60
2024-05-09T18:20:32.591Z,24.28
2024-05-09T18:23:07.372Z,23.79
2024-05-09T18:25:33.970Z,23.26
2024-05-09T18:28:02.523Z,22.95
2024-05-09T18:30:34.450Z,22.68
2024-05-09T18:33:03.015Z,22.34
2024-05-09T18:35:29.647Z,22.00
2024-05-09T18:37:56.234Z,21.69
2024-05-09T18:40:31.248Z,21.28
2024-05-09T18:43:02.307Z,20.81
2024-05-09T18:45:28.986Z,20.40
2024-05-09T18:47:56.195Z,20.04
2024-05-09T18:50:31.870Z,19.69
2024-05-09T18:53:02.640Z,19.36
2024-05-09T18:55:29.151Z,19.10
2024-05-09T18:57:55.734Z,18.84
2024-05-09T19:00:32.969Z,18.57
2024-05-09T19:03:03.523Z,18.27
2024-05-09T19:05:30.604Z,17.99
2024-05-09T19:07:57.272Z,17.74
2024-05-09T19:10:28.669Z,17.52
2024-05-09T19:12:58.805Z,17.30
2024-05-09T19:15:25.333Z,17.10
2024-05-09T19:17:52.124Z,16.92
2024-05-09T19:20:25.423Z,16.76
2024-05-09T19:22:58.221Z,16.60
2024-05-09T19:25:24.725Z,16.46
2024-05-09T19:27:51.449Z,16.35
2024-05-09T19:30:25.642Z,16.23
2024-05-09T19:33:01.186Z,16.08
2024-05-09T19:35:27.689Z,15.94
2024-05-09T19:37:54.257Z,15.80
2024-05-09T19:40:28.158Z,15.67
2024-05-09T19:42:57.504Z,15.51
2024-05-09T19:45:23.985Z,15.33
2024-05-09T19:47:50.740Z,15.21
2024-05-09T19:50:26.050Z,15.14
2024-05-09T19:52:58.542Z,15.05
2024-05-09T19:55:25.229Z,14.97
2024-05-09T19:57:51.787Z,14.89
2024-05-09T20:00:25.863Z,14.81
2024-05-09T20:02:55.925Z,14.70
2024-05-09T20:05:23.030Z,14.62
2024-05-09T20:07:49.727Z,14.54
2024-05-09T20:10:23.233Z,14.41
2024-05-09T20:12:52.911Z,14.31
2024-05-09T20:15:19.495Z,14.24
2024-05-09T20:17:46.150Z,14.13
2024-05-09T20:20:23.458Z,14.01
2024-05-09T20:22:55.143Z,13.88
2024-05-09T20:25:21.657Z,13.77
2024-05-09T20:27:48.253Z,13.64
2024-05-09T20:30:24.629Z,13.56
2024-05-09T20:32:55.324Z,13.48
2024-05-09T20:35:21.803Z,13.42
2024-05-09T20:37:48.286Z,13.36
2024-05-09T20:40:21.250Z,13.29
2024-05-09T20:42:52.234Z,13.24
2024-05-09T20:45:18.696Z,13.17
2024-05-09T20:47:45.279Z,13.12
2024-05-09T20:50:20.584Z,13.07
2024-05-09T20:52:55.111Z,13.04
2024-05-09T20:55:21.652Z,12.96
2024-05-09T20:57:48.267Z,12.88
2024-05-09T21:00:18.904Z,12.77
2024-05-09T21:02:49.186Z,12.64
2024-05-09T21:05:15.900Z,12.53
2024-05-09T21:07:42.490Z,12.47
2024-05-09T21:10:15.570Z,12.39
2024-05-09T21:12:46.200Z,12.34
2024-05-09T21:15:12.773Z,12.32
2024-05-09T21:17:39.364Z,12.26
2024-05-09T21:20:11.649Z,12.24
2024-05-09T21:22:44.062Z,12.18
2024-05-09T21:25:10.568Z,12.13
2024-05-09T21:27:37.172Z,12.06
2024-05-09T21:30:05.891Z,11.98
2024-05-09T21:32:32.580Z,11.92
2024-05-09T21:34:59.089Z,11.85
2024-05-09T21:37:25.619Z,11.78
2024-05-09T21:39:52.126Z,11.74
2024-05-09T21:42:18.644Z,11.69
2024-05-09T21:44:45.073Z,11.64
2024-05-09T21:47:11.616Z,11.60
2024-05-09T21:49:38.236Z,11.57
2024-05-09T21:52:04.968Z,11.56
2024-05-09T21:54:31.713Z,11.52
2024-05-09T21:56:58.176Z,11.50
2024-05-09T21:59:24.812Z,11.46
2024-05-09T22:01:51.433Z,11.37
2024-05-09T22:04:18.111Z,11.30
2024-05-09T22:06:44.741Z,11.25
2024-05-09T22:09:11.256Z,11.19
2024-05-09T22:11:37.838Z,11.17
2024-05-09T22:14:04.479Z,11.14
2024-05-09T22:16:31.176Z,11.12
2024-05-09T22:18:57.850Z,11.10
2024-05-09T22:21:24.409Z,11.06
2024-05-09T22:23:52.289Z,11.02
2024-05-09T22:26:18.773Z,10.98
2024-05-09T22:28:45.278Z,10.93
2024-05-09T22:31:11.863Z,10.88
2024-05-09T22:33:38.556Z,10.82
2024-05-09T22:36:07.358Z,10.74
2024-05-09T22:38:33.949Z,10.67
2024-05-09T22:41:00.518Z,10.62
2024-05-09T22:43:27.128Z,10.57
2024-05-09T22:45:53.774Z,10.51
2024-05-09T22:48:20.759Z,10.48
2024-05-09T22:50:47.388Z,10.45
2024-05-09T22:53:13.940Z,10.42
2024-05-09T22:55:40.522Z,10.37
2024-05-09T22:58:07.097Z,10.32
2024-05-09T23:00:33.884Z,10.28
2024-05-09T23:03:01.431Z,10.23
2024-05-09T23:05:28.614Z,10.21
2024-05-09T23:07:55.212Z,10.16
2024-05-09T23:10:28.254Z,10.11
2024-05-09T23:13:01.571Z,10.08
2024-05-09T23:15:28.434Z,10.03
2024-05-09T23:17:55.159Z,9.96
2024-05-09T23:20:29.594Z,9.93
2024-05-09T23:23:03.097Z,9.90
2024-05-09T23:25:29.532Z,9.85
2024-05-09T23:27:56.009Z,9.78
2024-05-09T23:30:33.018Z,9.73
2024-05-09T23:33:04.851Z,9.69
2024-05-09T23:35:31.492Z,9.67
2024-05-09T23:37:57.988Z,9.64
2024-05-09T23:40:34.721Z,9.60
2024-05-09T23:43:05.239Z,9.56
2024-05-09T23:45:31.873Z,9.52
2024-05-09T23:47:58.466Z,9.51
2024-05-09T23:50:33.216Z,9.48
2024-05-09T23:53:03.018Z,9.47
2024-05-09T23:55:29.580Z,9.46
2024-05-09T23:57:56.140Z,9.45
